sensor_id;sensor_type;location;lat;lon;timestamp;P1;durP1;ratioP1;P2;durP2;ratioP2
6406;SDS011;3236;51.022;6.818;2023-08-24T00:01:43;7.55;;;3.78;;
6406;SDS011;3236;51.022;6.818;2023-08-24T00:04:11;7.05;;;3.28;;
6406;SDS011;3236;51.022;6.818;2023-08-24T00:06:38;6.72;;;3.67;;
6406;SDS011;3236;51.022;6.818;2023-08-24T00:09:05;5.43;;;3.42;;
6406;SDS011;3236;51.022;6.818;2023-08-24T00:11:33;6.30;;;3.28;;
6406;SDS011;3236;51.022;6.818;2023-08-24T00:14:00;7.18;;;3.88;;
6406;SDS011;3236;51.022;6.818;2023-08-24T00:16:28;4.10;;;3.25;;
6406;SDS011;3236;51.022;6.818;2023-08-24T00:18:56;7.30;;;3.83;;
6406;SDS011;3236;51.022;6.818;2023-08-24T00:21:23;10.65;;;4.25;;
6406;SDS011;3236;51.022;6.818;2023-08-24T00:23:50;8.80;;;3.63;;
6406;SDS011;3236;51.022;6.818;2023-08-24T00:26:18;10.73;;;3.50;;
6406;SDS011;3236;51.022;6.818;2023-08-24T00:28:45;6.28;;;3.00;;
6406;SDS011;3236;51.022;6.818;2023-08-24T00:31:12;9.27;;;3.40;;
6406;SDS011;3236;51.022;6.818;2023-08-24T00:33:41;7.38;;;3.50;;
6406;SDS011;3236;51.022;6.818;2023-08-24T00:36:10;8.80;;;3.17;;
6406;SDS011;3236;51.022;6.818;2023-08-24T00:38:38;4.40;;;3.20;;
6406;SDS011;3236;51.022;6.818;2023-08-24T00:41:06;7.03;;;3.58;;
6406;SDS011;3236;51.022;6.818;2023-08-24T00:43:33;9.95;;;3.35;;
6406;SDS011;3236;51.022;6.818;2023-08-24T00:46:01;4.60;;;3.33;;
6406;SDS011;3236;51.022;6.818;2023-08-24T00:48:29;10.82;;;4.15;;
6406;SDS011;3236;51.022;6.818;2023-08-24T00:50:58;7.65;;;3.60;;
6406;SDS011;3236;51.022;6.818;2023-08-24T00:53:30;9.63;;;3.90;;
6406;SDS011;3236;51.022;6.818;2023-08-24T00:55:58;7.43;;;4.47;;
6406;SDS011;3236;51.022;6.818;2023-08-24T00:58:31;9.15;;;4.38;;
6406;SDS011;3236;51.022;6.818;2023-08-24T01:00:59;14.35;;;4.53;;
6406;SDS011;3236;51.022;6.818;2023-08-24T01:03:26;6.13;;;4.40;;
6406;SDS011;3236;51.022;6.818;2023-08-24T01:05:53;8.10;;;4.53;;
6406;SDS011;3236;51.022;6.818;2023-08-24T01:08:20;9.82;;;4.57;;
6406;SDS011;3236;51.022;6.818;2023-08-24T01:10:55;9.80;;;5.25;;
6406;SDS011;3236;51.022;6.818;2023-08-24T01:13:30;11.63;;;4.97;;
6406;SDS011;3236;51.022;6.818;2023-08-24T01:16:08;5.97;;;4.20;;
6406;SDS011;3236;51.022;6.818;2023-08-24T01:18:39;7.78;;;4.15;;
6406;SDS011;3236;51.022;6.818;2023-08-24T01:21:08;8.60;;;4.28;;
6406;SDS011;3236;51.022;6.818;2023-08-24T01:23:37;12.07;;;4.80;;
6406;SDS011;3236;51.022;6.818;2023-08-24T01:26:12;7.60;;;4.72;;
6406;SDS011;3236;51.022;6.818;2023-08-24T01:28:41;11.27;;;4.30;;
6406;SDS011;3236;51.022;6.818;2023-08-24T01:31:12;9.23;;;5.00;;
6406;SDS011;3236;51.022;6.818;2023-08-24T01:33:40;8.82;;;4.93;;
6406;SDS011;3236;51.022;6.818;2023-08-24T01:36:08;11.00;;;4.80;;
6406;SDS011;3236;51.022;6.818;2023-08-24T01:38:36;7.72;;;4.60;;
6406;SDS011;3236;51.022;6.818;2023-08-24T01:41:08;8.43;;;4.68;;
6406;SDS011;3236;51.022;6.818;2023-08-24T01:43:39;8.10;;;4.82;;
6406;SDS011;3236;51.022;6.818;2023-08-24T01:46:08;8.80;;;4.32;;
6406;SDS011;3236;51.022;6.818;2023-08-24T01:48:35;10.00;;;4.82;;
6406;SDS011;3236;51.022;6.818;2023-08-24T01:51:03;6.93;;;4.85;;
6406;SDS011;3236;51.022;6.818;2023-08-24T01:53:31;7.68;;;4.82;;
6406;SDS011;3236;51.022;6.818;2023-08-24T01:55:59;11.20;;;4.75;;
6406;SDS011;3236;51.022;6.818;2023-08-24T01:58:26;6.03;;;4.28;;
6406;SDS011;3236;51.022;6.818;2023-08-24T02:00:55;6.72;;;4.95;;
6406;SDS011;3236;51.022;6.818;2023-08-24T02:03:22;6.40;;;5.05;;
6406;SDS011;3236;51.022;6.818;2023-08-24T02:05:50;10.07;;;5.32;;
6406;SDS011;3236;51.022;6.818;2023-08-24T02:08:20;10.23;;;4.55;;
6406;SDS011;3236;51.022;6.818;2023-08-24T02:10:47;8.48;;;4.35;;
6406;SDS011;3236;51.022;6.818;2023-08-24T02:13:14;11.68;;;5.70;;
6406;SDS011;3236;51.022;6.818;2023-08-24T02:15:41;8.38;;;4.60;;
6406;SDS011;3236;51.022;6.818;2023-08-24T02:18:10;7.38;;;4.50;;
6406;SDS011;3236;51.022;6.818;2023-08-24T02:20:37;7.82;;;4.50;;
6406;SDS011;3236;51.022;6.818;2023-08-24T02:23:04;10.00;;;5.47;;
6406;SDS011;3236;51.022;6.818;2023-08-24T02:25:31;10.27;;;4.97;;
6406;SDS011;3236;51.022;6.818;2023-08-24T02:27:58;10.07;;;5.05;;
6406;SDS011;3236;51.022;6.818;2023-08-24T02:30:26;10.02;;;5.07;;
6406;SDS011;3236;51.022;6.818;2023-08-24T02:32:53;11.77;;;4.43;;
6406;SDS011;3236;51.022;6.818;2023-08-24T02:35:21;14.38;;;4.75;;
6406;SDS011;3236;51.022;6.818;2023-08-24T02:37:49;11.20;;;4.55;;
6406;SDS011;3236;51.022;6.818;2023-08-24T02:40:16;13.07;;;4.85;;
6406;SDS011;3236;51.022;6.818;2023-08-24T02:42:43;8.32;;;4.70;;
6406;SDS011;3236;51.022;6.818;2023-08-24T02:45:10;13.13;;;5.63;;
6406;SDS011;3236;51.022;6.818;2023-08-24T02:47:37;11.02;;;4.68;;
6406;SDS011;3236;51.022;6.818;2023-08-24T02:50:05;9.23;;;4.70;;
6406;SDS011;3236;51.022;6.818;2023-08-24T02:52:34;13.07;;;4.85;;
6406;SDS011;3236;51.022;6.818;2023-08-24T02:55:01;9.88;;;4.70;;
6406;SDS011;3236;51.022;6.818;2023-08-24T02:57:29;9.45;;;4.60;;
6406;SDS011;3236;51.022;6.818;2023-08-24T02:59:56;13.15;;;5.30;;
6406;SDS011;3236;51.022;6.818;2023-08-24T03:02:23;12.88;;;5.43;;
6406;SDS011;3236;51.022;6.818;2023-08-24T03:04:50;9.75;;;5.10;;
6406;SDS011;3236;51.022;6.818;2023-08-24T03:07:17;7.97;;;4.70;;
6406;SDS011;3236;51.022;6.818;2023-08-24T03:09:46;9.75;;;5.07;;
6406;SDS011;3236;51.022;6.818;2023-08-24T03:12:13;11.73;;;5.25;;
6406;SDS011;3236;51.022;6.818;2023-08-24T03:14:40;10.23;;;4.82;;
6406;SDS011;3236;51.022;6.818;2023-08-24T03:17:07;6.85;;;4.60;;
6406;SDS011;3236;51.022;6.818;2023-08-24T03:19:34;7.45;;;5.35;;
6406;SDS011;3236;51.022;6.818;2023-08-24T03:22:02;9.43;;;4.68;;
6406;SDS011;3236;51.022;6.818;2023-08-24T03:24:29;7.00;;;4.72;;
6406;SDS011;3236;51.022;6.818;2023-08-24T03:26:57;8.30;;;4.95;;
6406;SDS011;3236;51.022;6.818;2023-08-24T03:29:24;18.90;;;5.10;;
6406;SDS011;3236;51.022;6.818;2023-08-24T03:31:51;11.25;;;5.03;;
6406;SDS011;3236;51.022;6.818;2023-08-24T03:34:18;7.93;;;4.53;;
6406;SDS011;3236;51.022;6.818;2023-08-24T03:36:46;8.30;;;4.70;;
6406;SDS011;3236;51.022;6.818;2023-08-24T03:39:14;10.15;;;4.30;;
6406;SDS011;3236;51.022;6.818;2023-08-24T03:41:41;13.20;;;5.00;;
6406;SDS011;3236;51.022;6.818;2023-08-24T03:44:10;9.70;;;4.72;;
6406;SDS011;3236;51.022;6.818;2023-08-24T03:46:37;6.65;;;4.00;;
6406;SDS011;3236;51.022;6.818;2023-08-24T03:49:04;7.85;;;4.15;;
6406;SDS011;3236;51.022;6.818;2023-08-24T03:51:31;7.80;;;4.00;;
6406;SDS011;3236;51.022;6.818;2023-08-24T03:53:58;12.90;;;5.05;;
6406;SDS011;3236;51.022;6.818;2023-08-24T03:56:25;6.95;;;4.50;;
6406;SDS011;3236;51.022;6.818;2023-08-24T03:59:00;6.82;;;4.13;;
6406;SDS011;3236;51.022;6.818;2023-08-24T04:01:30;11.77;;;4.85;;
6406;SDS011;3236;51.022;6.818;2023-08-24T04:04:01;8.20;;;4.50;;
6406;SDS011;3236;51.022;6.818;2023-08-24T04:06:29;12.23;;;5.20;;
6406;SDS011;3236;51.022;6.818;2023-08-24T04:08:56;14.90;;;4.85;;
6406;SDS011;3236;51.022;6.818;2023-08-24T04:11:23;9.38;;;5.20;;
6406;SDS011;3236;51.022;6.818;2023-08-24T04:13:50;10.30;;;5.35;;
6406;SDS011;3236;51.022;6.818;2023-08-24T04:16:17;11.38;;;4.93;;
6406;SDS011;3236;51.022;6.818;2023-08-24T04:18:46;8.95;;;4.97;;
6406;SDS011;3236;51.022;6.818;2023-08-24T04:21:13;7.63;;;4.15;;
6406;SDS011;3236;51.022;6.818;2023-08-24T04:23:40;9.23;;;4.97;;
6406;SDS011;3236;51.022;6.818;2023-08-24T04:26:10;10.18;;;4.90;;
6406;SDS011;3236;51.022;6.818;2023-08-24T04:28:37;10.30;;;6.03;;
6406;SDS011;3236;51.022;6.818;2023-08-24T04:31:07;10.82;;;6.38;;
6406;SDS011;3236;51.022;6.818;2023-08-24T04:33:34;12.20;;;6.75;;
6406;SDS011;3236;51.022;6.818;2023-08-24T04:36:02;11.30;;;6.70;;
6406;SDS011;3236;51.022;6.818;2023-08-24T04:38:30;10.55;;;6.20;;
6406;SDS011;3236;51.022;6.818;2023-08-24T04:40:57;11.35;;;7.47;;
6406;SDS011;3236;51.022;6.818;2023-08-24T04:43:24;14.55;;;7.07;;
6406;SDS011;3236;51.022;6.818;2023-08-24T04:45:52;12.55;;;6.75;;
6406;SDS011;3236;51.022;6.818;2023-08-24T04:48:19;10.88;;;6.55;;
6406;SDS011;3236;51.022;6.818;2023-08-24T04:50:47;12.02;;;7.28;;
6406;SDS011;3236;51.022;6.818;2023-08-24T04:53:16;18.00;;;8.05;;
6406;SDS011;3236;51.022;6.818;2023-08-24T04:55:44;10.23;;;7.03;;
6406;SDS011;3236;51.022;6.818;2023-08-24T04:58:11;12.02;;;7.90;;
6406;SDS011;3236;51.022;6.818;2023-08-24T05:00:39;10.45;;;6.57;;
6406;SDS011;3236;51.022;6.818;2023-08-24T05:03:07;12.57;;;7.15;;
6406;SDS011;3236;51.022;6.818;2023-08-24T05:05:35;14.48;;;6.97;;
6406;SDS011;3236;51.022;6.818;2023-08-24T05:08:02;10.98;;;7.35;;
6406;SDS011;3236;51.022;6.818;2023-08-24T05:10:35;19.27;;;8.07;;
6406;SDS011;3236;51.022;6.818;2023-08-24T05:15:30;15.05;;;8.10;;
6406;SDS011;3236;51.022;6.818;2023-08-24T05:17:57;12.50;;;7.38;;
6406;SDS011;3236;51.022;6.818;2023-08-24T05:20:25;12.00;;;8.40;;
6406;SDS011;3236;51.022;6.818;2023-08-24T05:22:52;12.40;;;7.65;;
6406;SDS011;3236;51.022;6.818;2023-08-24T05:25:20;15.65;;;8.68;;
6406;SDS011;3236;51.022;6.818;2023-08-24T05:27:49;14.40;;;9.38;;
6406;SDS011;3236;51.022;6.818;2023-08-24T05:30:17;10.85;;;7.78;;
6406;SDS011;3236;51.022;6.818;2023-08-24T05:32:44;14.48;;;8.20;;
6406;SDS011;3236;51.022;6.818;2023-08-24T05:35:11;11.82;;;8.23;;
6406;SDS011;3236;51.022;6.818;2023-08-24T05:37:38;13.35;;;8.02;;
6406;SDS011;3236;51.022;6.818;2023-08-24T05:40:06;13.13;;;7.82;;
6406;SDS011;3236;51.022;6.818;2023-08-24T05:42:34;11.60;;;8.27;;
6406;SDS011;3236;51.022;6.818;2023-08-24T05:45:04;15.07;;;8.30;;
6406;SDS011;3236;51.022;6.818;2023-08-24T05:47:31;15.68;;;9.18;;
6406;SDS011;3236;51.022;6.818;2023-08-24T05:49:59;11.85;;;8.55;;
6406;SDS011;3236;51.022;6.818;2023-08-24T05:52:26;15.43;;;9.13;;
6406;SDS011;3236;51.022;6.818;2023-08-24T05:54:56;12.63;;;8.13;;
6406;SDS011;3236;51.022;6.818;2023-08-24T05:57:23;12.95;;;8.85;;
6406;SDS011;3236;51.022;6.818;2023-08-24T05:59:50;17.20;;;8.82;;
6406;SDS011;3236;51.022;6.818;2023-08-24T06:02:19;13.13;;;8.70;;
6406;SDS011;3236;51.022;6.818;2023-08-24T06:04:46;12.75;;;8.15;;
6406;SDS011;3236;51.022;6.818;2023-08-24T06:07:15;13.15;;;8.93;;
6406;SDS011;3236;51.022;6.818;2023-08-24T06:09:43;15.15;;;8.90;;
6406;SDS011;3236;51.022;6.818;2023-08-24T06:12:10;14.73;;;8.63;;
6406;SDS011;3236;51.022;6.818;2023-08-24T06:14:37;11.93;;;8.52;;
6406;SDS011;3236;51.022;6.818;2023-08-24T06:17:05;14.35;;;8.77;;
6406;SDS011;3236;51.022;6.818;2023-08-24T06:19:33;14.55;;;8.77;;
6406;SDS011;3236;51.022;6.818;2023-08-24T06:22:00;12.23;;;8.40;;
6406;SDS011;3236;51.022;6.818;2023-08-24T06:24:28;11.70;;;8.32;;
6406;SDS011;3236;51.022;6.818;2023-08-24T06:26:55;13.05;;;7.95;;
6406;SDS011;3236;51.022;6.818;2023-08-24T06:29:22;11.70;;;9.25;;
6406;SDS011;3236;51.022;6.818;2023-08-24T06:31:49;14.25;;;8.05;;
6406;SDS011;3236;51.022;6.818;2023-08-24T06:34:16;12.75;;;7.97;;
6406;SDS011;3236;51.022;6.818;2023-08-24T06:36:44;11.52;;;8.10;;
6406;SDS011;3236;51.022;6.818;2023-08-24T06:39:12;14.60;;;8.88;;
6406;SDS011;3236;51.022;6.818;2023-08-24T06:41:39;14.45;;;8.18;;
6406;SDS011;3236;51.022;6.818;2023-08-24T06:44:06;18.20;;;9.80;;
6406;SDS011;3236;51.022;6.818;2023-08-24T06:46:33;10.18;;;7.75;;
6406;SDS011;3236;51.022;6.818;2023-08-24T06:49:01;16.45;;;8.02;;
6406;SDS011;3236;51.022;6.818;2023-08-24T06:51:28;12.15;;;8.90;;
6406;SDS011;3236;51.022;6.818;2023-08-24T06:53:57;12.45;;;8.52;;
6406;SDS011;3236;51.022;6.818;2023-08-24T06:56:24;11.88;;;7.88;;
6406;SDS011;3236;51.022;6.818;2023-08-24T06:58:51;12.50;;;7.25;;
6406;SDS011;3236;51.022;6.818;2023-08-24T07:01:18;18.00;;;7.63;;
6406;SDS011;3236;51.022;6.818;2023-08-24T07:03:45;10.60;;;7.10;;
6406;SDS011;3236;51.022;6.818;2023-08-24T07:06:12;13.35;;;6.65;;
6406;SDS011;3236;51.022;6.818;2023-08-24T07:08:39;11.05;;;6.95;;
6406;SDS011;3236;51.022;6.818;2023-08-24T07:11:08;14.40;;;7.38;;
6406;SDS011;3236;51.022;6.818;2023-08-24T07:13:35;12.82;;;6.57;;
6406;SDS011;3236;51.022;6.818;2023-08-24T07:16:03;11.23;;;6.78;;
6406;SDS011;3236;51.022;6.818;2023-08-24T07:18:30;9.45;;;5.80;;
6406;SDS011;3236;51.022;6.818;2023-08-24T07:20:57;11.73;;;6.05;;
6406;SDS011;3236;51.022;6.818;2023-08-24T07:23:24;11.63;;;6.55;;
6406;SDS011;3236;51.022;6.818;2023-08-24T07:25:52;7.60;;;5.13;;
6406;SDS011;3236;51.022;6.818;2023-08-24T07:28:20;9.30;;;5.78;;
6406;SDS011;3236;51.022;6.818;2023-08-24T07:30:47;8.93;;;5.18;;
6406;SDS011;3236;51.022;6.818;2023-08-24T07:33:15;8.88;;;5.05;;
6406;SDS011;3236;51.022;6.818;2023-08-24T07:35:42;7.63;;;4.55;;
6406;SDS011;3236;51.022;6.818;2023-08-24T07:38:09;12.30;;;5.45;;
6406;SDS011;3236;51.022;6.818;2023-08-24T07:40:36;6.90;;;4.80;;
6406;SDS011;3236;51.022;6.818;2023-08-24T07:43:03;12.18;;;4.97;;
6406;SDS011;3236;51.022;6.818;2023-08-24T07:45:32;12.27;;;4.28;;
6406;SDS011;3236;51.022;6.818;2023-08-24T07:47:59;6.18;;;4.20;;
6406;SDS011;3236;51.022;6.818;2023-08-24T07:50:26;10.80;;;4.22;;
6406;SDS011;3236;51.022;6.818;2023-08-24T07:52:53;6.72;;;4.05;;
6406;SDS011;3236;51.022;6.818;2023-08-24T07:55:21;7.53;;;4.30;;
6406;SDS011;3236;51.022;6.818;2023-08-24T07:57:48;6.45;;;3.70;;
6406;SDS011;3236;51.022;6.818;2023-08-24T08:00:15;7.45;;;3.35;;
6406;SDS011;3236;51.022;6.818;2023-08-24T08:02:44;6.60;;;3.60;;
6406;SDS011;3236;51.022;6.818;2023-08-24T08:05:11;7.05;;;3.97;;
6406;SDS011;3236;51.022;6.818;2023-08-24T08:07:38;7.07;;;4.03;;
6406;SDS011;3236;51.022;6.818;2023-08-24T08:10:05;5.68;;;3.85;;
6406;SDS011;3236;51.022;6.818;2023-08-24T08:12:33;5.63;;;4.05;;
6406;SDS011;3236;51.022;6.818;2023-08-24T08:15:00;7.85;;;3.97;;
6406;SDS011;3236;51.022;6.818;2023-08-24T08:17:28;6.03;;;3.40;;
6406;SDS011;3236;51.022;6.818;2023-08-24T08:19:57;8.43;;;4.25;;
6406;SDS011;3236;51.022;6.818;2023-08-24T08:22:24;7.70;;;3.60;;
6406;SDS011;3236;51.022;6.818;2023-08-24T08:24:51;6.97;;;3.72;;
6406;SDS011;3236;51.022;6.818;2023-08-24T08:27:21;12.77;;;3.70;;
6406;SDS011;3236;51.022;6.818;2023-08-24T08:29:49;5.10;;;3.42;;
6406;SDS011;3236;51.022;6.818;2023-08-24T08:32:17;6.53;;;4.07;;
6406;SDS011;3236;51.022;6.818;2023-08-24T08:34:44;6.03;;;3.92;;
6406;SDS011;3236;51.022;6.818;2023-08-24T08:37:12;6.05;;;2.90;;
6406;SDS011;3236;51.022;6.818;2023-08-24T08:39:40;5.32;;;3.72;;
6406;SDS011;3236;51.022;6.818;2023-08-24T08:42:10;5.93;;;3.95;;
6406;SDS011;3236;51.022;6.818;2023-08-24T08:44:38;8.25;;;4.05;;
6406;SDS011;3236;51.022;6.818;2023-08-24T08:47:07;5.80;;;3.90;;
6406;SDS011;3236;51.022;6.818;2023-08-24T08:49:35;7.47;;;3.95;;
6406;SDS011;3236;51.022;6.818;2023-08-24T08:52:04;5.53;;;3.13;;
6406;SDS011;3236;51.022;6.818;2023-08-24T08:54:33;8.02;;;3.58;;
6406;SDS011;3236;51.022;6.818;2023-08-24T08:57:01;6.93;;;3.92;;
6406;SDS011;3236;51.022;6.818;2023-08-24T08:59:28;7.57;;;3.72;;
6406;SDS011;3236;51.022;6.818;2023-08-24T09:01:56;5.18;;;3.35;;
6406;SDS011;3236;51.022;6.818;2023-08-24T09:04:25;3.95;;;3.05;;
6406;SDS011;3236;51.022;6.818;2023-08-24T09:06:55;7.85;;;2.90;;
6406;SDS011;3236;51.022;6.818;2023-08-24T09:09:23;6.55;;;4.07;;
6406;SDS011;3236;51.022;6.818;2023-08-24T09:11:53;5.05;;;3.20;;
6406;SDS011;3236;51.022;6.818;2023-08-24T09:14:20;6.75;;;3.40;;
6406;SDS011;3236;51.022;6.818;2023-08-24T09:16:47;6.35;;;3.00;;
6406;SDS011;3236;51.022;6.818;2023-08-24T09:19:15;4.18;;;2.72;;
6406;SDS011;3236;51.022;6.818;2023-08-24T09:21:42;7.40;;;2.95;;
6406;SDS011;3236;51.022;6.818;2023-08-24T09:24:09;6.35;;;3.35;;
6406;SDS011;3236;51.022;6.818;2023-08-24T09:26:37;4.22;;;2.97;;
6406;SDS011;3236;51.022;6.818;2023-08-24T09:29:12;5.35;;;2.83;;
6406;SDS011;3236;51.022;6.818;2023-08-24T09:31:40;7.28;;;2.88;;
6406;SDS011;3236;51.022;6.818;2023-08-24T09:34:09;8.40;;;4.07;;
6406;SDS011;3236;51.022;6.818;2023-08-24T09:36:36;8.93;;;3.17;;
6406;SDS011;3236;51.022;6.818;2023-08-24T09:39:04;6.88;;;2.85;;
6406;SDS011;3236;51.022;6.818;2023-08-24T09:41:38;9.07;;;2.90;;
6406;SDS011;3236;51.022;6.818;2023-08-24T09:44:05;7.45;;;3.33;;
6406;SDS011;3236;51.022;6.818;2023-08-24T09:46:34;5.00;;;2.83;;
6406;SDS011;3236;51.022;6.818;2023-08-24T09:49:04;6.32;;;3.28;;
6406;SDS011;3236;51.022;6.818;2023-08-24T09:51:33;7.82;;;3.60;;
6406;SDS011;3236;51.022;6.818;2023-08-24T09:54:01;4.05;;;2.78;;
6406;SDS011;3236;51.022;6.818;2023-08-24T09:56:31;3.70;;;2.45;;
6406;SDS011;3236;51.022;6.818;2023-08-24T09:59:04;8.18;;;3.50;;
6406;SDS011;3236;51.022;6.818;2023-08-24T10:01:40;5.85;;;2.85;;
6406;SDS011;3236;51.022;6.818;2023-08-24T10:04:08;7.67;;;2.90;;
6406;SDS011;3236;51.022;6.818;2023-08-24T10:06:37;4.72;;;2.83;;
6406;SDS011;3236;51.022;6.818;2023-08-24T10:09:06;8.77;;;2.65;;
6406;SDS011;3236;51.022;6.818;2023-08-24T10:11:48;3.70;;;2.65;;
6406;SDS011;3236;51.022;6.818;2023-08-24T10:14:19;7.97;;;2.53;;
6406;SDS011;3236;51.022;6.818;2023-08-24T10:16:54;10.10;;;3.55;;
6406;SDS011;3236;51.022;6.818;2023-08-24T10:19:22;7.10;;;2.80;;
6406;SDS011;3236;51.022;6.818;2023-08-24T10:21:51;2.72;;;2.28;;
6406;SDS011;3236;51.022;6.818;2023-08-24T10:24:22;4.35;;;2.50;;
6406;SDS011;3236;51.022;6.818;2023-08-24T10:26:50;9.13;;;2.92;;
6406;SDS011;3236;51.022;6.818;2023-08-24T10:29:19;4.50;;;2.40;;
6406;SDS011;3236;51.022;6.818;2023-08-24T10:31:48;3.70;;;2.30;;
6406;SDS011;3236;51.022;6.818;2023-08-24T10:34:17;4.63;;;2.63;;
6406;SDS011;3236;51.022;6.818;2023-08-24T10:36:46;5.25;;;3.08;;
6406;SDS011;3236;51.022;6.818;2023-08-24T10:39:14;6.40;;;2.78;;
6406;SDS011;3236;51.022;6.818;2023-08-24T10:41:47;2.85;;;2.25;;
6406;SDS011;3236;51.022;6.818;2023-08-24T10:44:22;6.13;;;2.88;;
6406;SDS011;3236;51.022;6.818;2023-08-24T10:47:06;4.40;;;2.53;;
6406;SDS011;3236;51.022;6.818;2023-08-24T10:49:36;5.70;;;4.35;;
6406;SDS011;3236;51.022;6.818;2023-08-24T10:52:16;8.15;;;2.42;;
6406;SDS011;3236;51.022;6.818;2023-08-24T10:54:47;8.95;;;2.38;;
6406;SDS011;3236;51.022;6.818;2023-08-24T10:57:19;5.22;;;2.45;;
6406;SDS011;3236;51.022;6.818;2023-08-24T10:59:57;4.95;;;2.50;;
6406;SDS011;3236;51.022;6.818;2023-08-24T11:02:25;4.35;;;2.30;;
6406;SDS011;3236;51.022;6.818;2023-08-24T11:05:07;3.33;;;2.25;;
6406;SDS011;3236;51.022;6.818;2023-08-24T11:07:51;6.18;;;2.65;;
6406;SDS011;3236;51.022;6.818;2023-08-24T11:10:19;3.28;;;2.38;;
6406;SDS011;3236;51.022;6.818;2023-08-24T11:15:45;7.72;;;2.65;;
6406;SDS011;3236;51.022;6.818;2023-08-24T11:21:06;6.03;;;2.58;;
6406;SDS011;3236;51.022;6.818;2023-08-24T11:23:34;5.03;;;2.50;;
6406;SDS011;3236;51.022;6.818;2023-08-24T11:26:01;5.35;;;2.45;;
6406;SDS011;3236;51.022;6.818;2023-08-24T11:28:29;2.95;;;2.00;;
6406;SDS011;3236;51.022;6.818;2023-08-24T11:30:57;5.63;;;2.50;;
6406;SDS011;3236;51.022;6.818;2023-08-24T11:33:29;5.28;;;2.20;;
6406;SDS011;3236;51.022;6.818;2023-08-24T11:35:57;4.93;;;2.63;;
6406;SDS011;3236;51.022;6.818;2023-08-24T11:38:26;9.05;;;2.67;;
6406;SDS011;3236;51.022;6.818;2023-08-24T11:41:09;11.27;;;2.63;;
6406;SDS011;3236;51.022;6.818;2023-08-24T11:43:38;4.60;;;1.98;;
6406;SDS011;3236;51.022;6.818;2023-08-24T11:46:05;7.63;;;2.20;;
6406;SDS011;3236;51.022;6.818;2023-08-24T11:48:32;11.38;;;2.75;;
6406;SDS011;3236;51.022;6.818;2023-08-24T11:51:01;5.82;;;2.58;;
6406;SDS011;3236;51.022;6.818;2023-08-24T11:53:30;7.75;;;2.40;;
6406;SDS011;3236;51.022;6.818;2023-08-24T11:55:58;5.55;;;2.30;;
6406;SDS011;3236;51.022;6.818;2023-08-24T11:58:27;7.97;;;2.80;;
6406;SDS011;3236;51.022;6.818;2023-08-24T12:00:54;4.43;;;2.30;;
6406;SDS011;3236;51.022;6.818;2023-08-24T12:03:21;4.65;;;2.60;;
6406;SDS011;3236;51.022;6.818;2023-08-24T12:05:49;5.40;;;2.80;;
6406;SDS011;3236;51.022;6.818;2023-08-24T12:08:17;11.15;;;2.53;;
6406;SDS011;3236;51.022;6.818;2023-08-24T12:10:45;4.85;;;2.70;;
6406;SDS011;3236;51.022;6.818;2023-08-24T12:13:12;6.38;;;3.10;;
6406;SDS011;3236;51.022;6.818;2023-08-24T12:15:40;8.13;;;2.83;;
6406;SDS011;3236;51.022;6.818;2023-08-24T12:18:08;9.65;;;3.17;;
6406;SDS011;3236;51.022;6.818;2023-08-24T12:20:36;5.47;;;3.42;;
6406;SDS011;3236;51.022;6.818;2023-08-24T12:23:03;10.35;;;3.35;;
6406;SDS011;3236;51.022;6.818;2023-08-24T12:25:30;8.80;;;3.28;;
6406;SDS011;3236;51.022;6.818;2023-08-24T12:28:10;10.05;;;3.20;;
6406;SDS011;3236;51.022;6.818;2023-08-24T12:30:45;8.68;;;3.38;;
6406;SDS011;3236;51.022;6.818;2023-08-24T12:33:22;7.28;;;3.35;;
6406;SDS011;3236;51.022;6.818;2023-08-24T12:35:51;7.45;;;3.30;;
6406;SDS011;3236;51.022;6.818;2023-08-24T12:38:18;5.00;;;3.25;;
6406;SDS011;3236;51.022;6.818;2023-08-24T12:40:45;6.07;;;3.65;;
6406;SDS011;3236;51.022;6.818;2023-08-24T12:43:14;5.55;;;3.60;;
6406;SDS011;3236;51.022;6.818;2023-08-24T12:45:41;9.80;;;3.90;;
6406;SDS011;3236;51.022;6.818;2023-08-24T12:48:09;10.43;;;3.78;;
6406;SDS011;3236;51.022;6.818;2023-08-24T12:50:37;8.40;;;3.40;;
6406;SDS011;3236;51.022;6.818;2023-08-24T12:53:04;12.60;;;4.00;;
6406;SDS011;3236;51.022;6.818;2023-08-24T12:55:32;7.22;;;3.83;;
6406;SDS011;3236;51.022;6.818;2023-08-24T12:57:59;11.13;;;4.68;;
6406;SDS011;3236;51.022;6.818;2023-08-24T13:00:28;11.45;;;4.57;;
6406;SDS011;3236;51.022;6.818;2023-08-24T13:02:55;7.75;;;3.80;;
6406;SDS011;3236;51.022;6.818;2023-08-24T13:05:22;8.23;;;3.78;;
6406;SDS011;3236;51.022;6.818;2023-08-24T13:07:49;14.70;;;4.28;;
6406;SDS011;3236;51.022;6.818;2023-08-24T13:10:17;12.55;;;4.15;;
6406;SDS011;3236;51.022;6.818;2023-08-24T13:12:44;9.05;;;4.00;;
6406;SDS011;3236;51.022;6.818;2023-08-24T13:15:11;9.45;;;3.72;;
6406;SDS011;3236;51.022;6.818;2023-08-24T13:17:41;11.80;;;3.53;;
6406;SDS011;3236;51.022;6.818;2023-08-24T13:20:09;5.75;;;3.42;;
6406;SDS011;3236;51.022;6.818;2023-08-24T13:22:37;11.32;;;4.07;;
6406;SDS011;3236;51.022;6.818;2023-08-24T13:25:04;9.82;;;4.03;;
6406;SDS011;3236;51.022;6.818;2023-08-24T13:27:32;6.15;;;4.18;;
6406;SDS011;3236;51.022;6.818;2023-08-24T13:29:59;7.18;;;3.78;;
6406;SDS011;3236;51.022;6.818;2023-08-24T13:32:27;10.00;;;3.42;;
6406;SDS011;3236;51.022;6.818;2023-08-24T13:34:55;5.35;;;3.17;;
6406;SDS011;3236;51.022;6.818;2023-08-24T13:37:23;8.52;;;3.20;;
6406;SDS011;3236;51.022;6.818;2023-08-24T13:39:50;9.00;;;3.25;;
6406;SDS011;3236;51.022;6.818;2023-08-24T13:42:20;9.02;;;3.58;;
6406;SDS011;3236;51.022;6.818;2023-08-24T13:44:48;9.00;;;3.35;;
6406;SDS011;3236;51.022;6.818;2023-08-24T13:47:15;7.15;;;3.63;;
6406;SDS011;3236;51.022;6.818;2023-08-24T13:49:42;10.63;;;3.50;;
6406;SDS011;3236;51.022;6.818;2023-08-24T13:52:11;6.20;;;3.10;;
6406;SDS011;3236;51.022;6.818;2023-08-24T13:54:38;6.25;;;3.30;;
6406;SDS011;3236;51.022;6.818;2023-08-24T13:57:05;7.05;;;3.45;;
6406;SDS011;3236;51.022;6.818;2023-08-24T13:59:32;9.88;;;3.20;;
6406;SDS011;3236;51.022;6.818;2023-08-24T14:01:59;7.53;;;3.10;;
6406;SDS011;3236;51.022;6.818;2023-08-24T14:04:26;8.90;;;3.15;;
6406;SDS011;3236;51.022;6.818;2023-08-24T14:06:54;7.97;;;3.55;;
6406;SDS011;3236;51.022;6.818;2023-08-24T14:09:22;10.20;;;2.90;;
6406;SDS011;3236;51.022;6.818;2023-08-24T14:11:49;6.35;;;3.00;;
6406;SDS011;3236;51.022;6.818;2023-08-24T14:14:17;6.35;;;3.47;;
6406;SDS011;3236;51.022;6.818;2023-08-24T14:16:44;6.97;;;2.67;;
6406;SDS011;3236;51.022;6.818;2023-08-24T14:19:11;4.10;;;2.72;;
6406;SDS011;3236;51.022;6.818;2023-08-24T14:21:38;9.07;;;2.63;;
6406;SDS011;3236;51.022;6.818;2023-08-24T14:24:05;3.17;;;2.00;;
6406;SDS011;3236;51.022;6.818;2023-08-24T14:26:34;6.82;;;2.92;;
6406;SDS011;3236;51.022;6.818;2023-08-24T14:29:03;7.55;;;2.88;;
6406;SDS011;3236;51.022;6.818;2023-08-24T14:31:30;3.08;;;2.17;;
6406;SDS011;3236;51.022;6.818;2023-08-24T14:33:57;3.85;;;2.40;;
6406;SDS011;3236;51.022;6.818;2023-08-24T14:36:25;10.55;;;2.78;;
6406;SDS011;3236;51.022;6.818;2023-08-24T14:38:52;4.22;;;2.20;;
6406;SDS011;3236;51.022;6.818;2023-08-24T14:41:19;8.25;;;3.00;;
6406;SDS011;3236;51.022;6.818;2023-08-24T14:43:49;3.83;;;1.83;;
6406;SDS011;3236;51.022;6.818;2023-08-24T14:46:16;6.43;;;2.70;;
6406;SDS011;3236;51.022;6.818;2023-08-24T14:48:43;5.50;;;2.28;;
6406;SDS011;3236;51.022;6.818;2023-08-24T14:51:10;5.70;;;2.60;;
6406;SDS011;3236;51.022;6.818;2023-08-24T14:53:37;9.25;;;3.10;;
6406;SDS011;3236;51.022;6.818;2023-08-24T14:56:05;6.10;;;2.55;;
6406;SDS011;3236;51.022;6.818;2023-08-24T14:58:33;8.90;;;3.15;;
6406;SDS011;3236;51.022;6.818;2023-08-24T15:01:02;7.18;;;2.65;;
6406;SDS011;3236;51.022;6.818;2023-08-24T15:03:30;4.50;;;2.67;;
6406;SDS011;3236;51.022;6.818;2023-08-24T15:05:57;7.45;;;2.65;;
6406;SDS011;3236;51.022;6.818;2023-08-24T15:08:28;4.93;;;2.58;;
6406;SDS011;3236;51.022;6.818;2023-08-24T15:10:56;8.95;;;2.67;;
6406;SDS011;3236;51.022;6.818;2023-08-24T15:13:24;6.32;;;3.00;;
6406;SDS011;3236;51.022;6.818;2023-08-24T15:15:52;8.98;;;2.63;;
6406;SDS011;3236;51.022;6.818;2023-08-24T15:18:22;5.93;;;2.22;;
6406;SDS011;3236;51.022;6.818;2023-08-24T15:20:49;12.25;;;2.58;;
6406;SDS011;3236;51.022;6.818;2023-08-24T15:23:23;8.25;;;2.90;;
6406;SDS011;3236;51.022;6.818;2023-08-24T15:25:51;3.45;;;2.33;;